Time;durP1;ratioP1;P1;durP2;ratioP2;P2;SDS_P1;SDS_P2;PMS_P1;PMS_P2;Temp;Humidity;BMP_temperature;BMP_pressure;BME280_temperature;BME280_humidity;BME280_pressure;Samples;Min_cycle;Max_cycle;Signal;HPM_P1;HPM_P2
2023/03/19 00:01:25;;;;;;;14.60;9.98;;;;;;;5.90;56.98;100496.31;5064089;28;20044;-68
2023/03/19 00:03:51;;;;;;;18.17;9.95;;;;;;;6.05;56.29;100496.97;5061732;28;20036;-65
2023/03/19 00:06:16;;;;;;;19.33;11.13;;;;;;;6.23;55.39;100497.38;5061173;28;20255;-69
2023/03/19 00:08:42;;;;;;;21.70;12.05;;;;;;;5.99;56.07;100500.03;5065268;28;20032;-70
2023/03/19 00:11:09;;;;;;;20.55;11.18;;;;;;;6.20;55.90;100498.44;5064868;28;20049;-65
2023/03/19 00:13:35;;;;;;;15.10;9.27;;;;;;;5.98;56.65;100490.47;5061796;28;20231;-65
2023/03/19 00:16:01;;;;;;;16.45;9.23;;;;;;;5.87;57.44;100486.00;5061690;28;20049;-65
2023/03/19 00:18:26;;;;;;;20.17;9.75;;;;;;;6.10;56.60;100481.69;5067101;28;20035;-65
2023/03/19 00:20:52;;;;;;;14.48;9.38;;;;;;;6.22;55.77;100477.28;5064721;28;20036;-65
2023/03/19 00:23:17;;;;;;;17.75;9.30;;;;;;;5.95;56.35;100474.94;5062108;28;20032;-65
2023/03/19 00:25:42;;;;;;;20.60;10.45;;;;;;;5.91;56.32;100466.44;5063026;28;20039;-66
2023/03/19 00:28:08;;;;;;;16.60;9.75;;;;;;;5.86;56.12;100465.91;5094298;28;20271;-66
2023/03/19 00:30:34;;;;;;;19.30;9.45;;;;;;;5.88;57.07;100466.66;5063661;28;20040;-69
2023/03/19 00:33:00;;;;;;;20.52;10.48;;;;;;;6.12;55.99;100457.91;5063762;28;20092;-69
2023/03/19 00:35:25;;;;;;;14.68;8.18;;;;;;;6.16;55.92;100454.09;5062063;28;20203;-69
2023/03/19 00:37:51;;;;;;;14.52;8.70;;;;;;;6.15;55.66;100457.66;5064033;28;20032;-69
2023/03/19 00:40:17;;;;;;;16.75;8.95;;;;;;;6.21;55.61;100463.28;5062928;28;20226;-64
2023/03/19 00:42:43;;;;;;;16.45;8.88;;;;;;;6.30;55.32;100454.72;5061529;28;20045;-64
2023/03/19 00:45:10;;;;;;;13.55;8.32;;;;;;;6.22;54.63;100456.25;5065289;28;20036;-69
2023/03/19 00:47:35;;;;;;;13.95;8.48;;;;;;;6.08;55.47;100452.88;5063808;28;20037;-64
2023/03/19 00:50:02;;;;;;;14.32;7.95;;;;;;;6.02;55.86;100457.75;5063164;28;20456;-64
2023/03/19 00:52:28;;;;;;;14.38;8.10;;;;;;;5.97;55.99;100458.09;5063162;28;20257;-69
2023/03/19 00:54:54;;;;;;;14.40;8.13;;;;;;;5.91;56.37;100461.19;5061317;28;20313;-64
2023/03/19 00:57:20;;;;;;;16.20;9.38;;;;;;;6.02;56.43;100455.97;5060108;28;20362;-64
2023/03/19 00:59:45;;;;;;;13.93;8.27;;;;;;;5.96;56.54;100463.47;5064432;28;20036;-64
2023/03/19 01:02:11;;;;;;;13.30;7.75;;;;;;;5.84;56.60;100440.69;5064428;28;20047;-65
2023/03/19 01:04:36;;;;;;;13.35;7.65;;;;;;;5.94;56.07;100449.59;5061142;28;20456;-64
2023/03/19 01:07:02;;;;;;;11.15;6.80;;;;;;;6.01;56.47;100458.72;5064460;28;20317;-64
2023/03/19 01:09:27;;;;;;;12.68;7.03;;;;;;;6.00;55.68;100451.78;5062256;28;20219;-64
2023/03/19 01:11:53;;;;;;;10.45;6.50;;;;;;;5.95;55.71;100446.88;5060544;28;20074;-69
2023/03/19 01:14:18;;;;;;;11.57;7.40;;;;;;;5.94;56.41;100454.88;5064578;28;20346;-65
2023/03/19 01:16:44;;;;;;;11.10;6.95;;;;;;;5.48;57.40;100457.41;5060023;28;20053;-64
2023/03/19 01:19:09;;;;;;;11.98;7.25;;;;;;;5.42;57.60;100454.28;5063458;28;20024;-66
2023/03/19 01:21:35;;;;;;;10.82;7.07;;;;;;;5.33;58.04;100454.94;5063058;28;20045;-64
2023/03/19 01:24:01;;;;;;;12.63;7.53;;;;;;;5.35;58.01;100458.28;5062111;28;20321;-65
2023/03/19 01:26:26;;;;;;;10.77;6.80;;;;;;;5.66;56.89;100449.00;5062604;28;20055;-66
2023/03/19 01:28:52;;;;;;;11.38;7.68;;;;;;;5.45;57.01;100434.81;5060839;28;20037;-65
2023/03/19 01:31:18;;;;;;;14.07;7.28;;;;;;;5.48;57.22;100450.34;5063981;28;20233;-65
2023/03/19 01:33:43;;;;;;;10.00;5.68;;;;;;;5.29;58.06;100447.41;5060361;28;20041;-68
2023/03/19 01:36:10;;;;;;;9.38;5.78;;;;;;;4.97;59.12;100445.28;5059729;28;20047;-67
2023/03/19 01:38:35;;;;;;;7.53;4.97;;;;;;;5.09;58.28;100446.19;5064351;28;20024;-69
2023/03/19 01:41:01;;;;;;;11.68;5.60;;;;;;;5.25;58.07;100440.69;5061143;28;20306;-64
2023/03/19 01:43:28;;;;;;;11.10;6.43;;;;;;;5.20;58.00;100446.28;5060366;28;20047;-69
2023/03/19 01:46:30;;;;;;;10.25;5.40;;;;;;;4.87;59.68;100446.03;5062024;28;20233;-65
2023/03/19 01:49:01;;;;;;;9.23;5.68;;;;;;;4.97;59.19;100437.41;5060309;28;20037;-65
2023/03/19 01:51:31;;;;;;;11.23;6.68;;;;;;;4.97;59.29;100444.44;5059120;28;20038;-64
2023/03/19 01:54:04;;;;;;;9.27;6.30;;;;;;;5.15;58.43;100451.00;5059534;28;20341;-65
2023/03/19 01:56:32;;;;;;;11.13;6.22;;;;;;;5.21;58.71;100455.00;5063691;28;20087;-65
2023/03/19 01:59:05;;;;;;;10.55;5.75;;;;;;;5.43;58.23;100453.31;5062847;28;20064;-65
2023/03/19 02:01:35;;;;;;;15.10;6.95;;;;;;;5.61;58.09;100459.00;5061960;28;20116;-69
2023/03/19 02:04:02;;;;;;;15.18;8.40;;;;;;;5.78;57.74;100448.09;5059308;28;20066;-69
2023/03/19 02:06:29;;;;;;;11.95;7.10;;;;;;;6.01;56.59;100463.97;5062636;28;20051;-69
2023/03/19 02:08:55;;;;;;;10.88;6.35;;;;;;;6.04;56.59;100459.31;5062192;28;20028;-65
2023/03/19 02:11:21;;;;;;;9.52;5.68;;;;;;;6.23;56.12;100460.53;5059560;28;20041;-69
2023/03/19 02:13:47;;;;;;;11.45;6.15;;;;;;;6.20;56.01;100464.25;5062302;28;20429;-65
2023/03/19 02:16:14;;;;;;;10.60;6.63;;;;;;;6.21;55.59;100468.56;5063987;28;20125;-68
2023/03/19 02:18:41;;;;;;;12.68;6.78;;;;;;;6.31;55.69;100471.34;5062037;28;20079;-68
2023/03/19 02:21:13;;;;;;;8.48;5.10;;;;;;;6.48;55.44;100475.31;5059902;28;20323;-65
2023/03/19 02:24:00;;;;;;;9.68;5.43;;;;;;;6.40;55.22;100475.91;5063654;28;20031;-65
2023/03/19 02:26:28;;;;;;;9.20;5.72;;;;;;;6.40;55.09;100471.47;5063561;28;20064;-69
2023/03/19 02:28:54;;;;;;;9.35;5.25;;;;;;;6.37;55.60;100471.72;5061771;28;20036;-69
2023/03/19 02:31:20;;;;;;;10.70;5.63;;;;;;;6.35;55.40;100475.41;5060940;28;20041;-65
2023/03/19 02:34:17;;;;;;;11.73;6.50;;;;;;;6.41;55.50;100477.59;5059774;28;20226;-65
2023/03/19 02:36:48;;;;;;;11.60;5.75;;;;;;;6.48;55.04;100485.84;5059813;28;20056;-69
2023/03/19 02:39:21;;;;;;;12.75;6.22;;;;;;;6.50;55.09;100478.66;5063031;28;20040;-65
2023/03/19 02:41:47;;;;;;;11.00;5.27;;;;;;;6.57;54.87;100478.09;5065369;28;20044;-69
2023/03/19 02:44:13;;;;;;;8.77;6.15;;;;;;;6.61;54.96;100484.78;5060275;28;20033;-68
2023/03/19 02:46:39;;;;;;;11.05;5.68;;;;;;;6.61;55.21;100484.78;5065625;28;20078;-69
2023/03/19 02:49:04;;;;;;;8.38;5.07;;;;;;;6.64;54.71;100481.06;5063848;28;20056;-65
2023/03/19 02:51:30;;;;;;;9.93;5.30;;;;;;;6.63;54.44;100479.41;5063682;28;20059;-69
2023/03/19 02:53:55;;;;;;;9.65;6.47;;;;;;;6.50;55.21;100479.50;5066448;28;20036;-65
2023/03/19 02:56:21;;;;;;;12.98;6.60;;;;;;;6.47;55.09;100474.47;5065176;28;20082;-69
2023/03/19 02:58:46;;;;;;;9.60;5.90;;;;;;;6.51;54.73;100482.97;5064757;28;20037;-69
2023/03/19 03:01:12;;;;;;;10.43;6.25;;;;;;;6.56;55.12;100478.19;5063232;28;20044;-69
2023/03/19 03:03:38;;;;;;;13.32;5.88;;;;;;;6.52;54.25;100487.28;5062553;28;20040;-69
2023/03/19 03:06:03;;;;;;;10.18;5.80;;;;;;;6.56;54.48;100480.81;5064945;28;20043;-69
2023/03/19 03:08:29;;;;;;;12.20;6.95;;;;;;;6.54;55.20;100486.22;5063634;28;20045;-69
2023/03/19 03:10:54;;;;;;;10.73;6.45;;;;;;;6.55;55.17;100487.03;5066258;28;20040;-64
2023/03/19 03:13:20;;;;;;;11.18;6.18;;;;;;;6.51;54.48;100482.97;5062117;28;20502;-69
2023/03/19 03:15:45;;;;;;;11.68;6.72;;;;;;;6.55;54.36;100487.88;5067005;28;20057;-64
2023/03/19 03:18:10;;;;;;;9.43;5.60;;;;;;;6.55;54.61;100498.41;5065233;28;20331;-69
2023/03/19 03:20:36;;;;;;;9.88;5.80;;;;;;;6.65;54.13;100496.75;5062175;28;20048;-69
2023/03/19 03:23:02;;;;;;;7.75;5.35;;;;;;;6.63;53.53;100498.66;5062910;28;20032;-69
2023/03/19 03:25:27;;;;;;;8.13;5.70;;;;;;;6.43;54.98;100498.50;5065729;28;20206;-70
2023/03/19 03:27:52;;;;;;;9.68;6.28;;;;;;;6.38;55.19;100501.50;5063935;28;20041;-69
2023/03/19 03:30:19;;;;;;;7.68;4.93;;;;;;;6.51;54.70;100498.75;5064609;28;20039;-69
2023/03/19 03:32:44;;;;;;;8.50;5.60;;;;;;;6.47;53.93;100484.16;5068555;28;20029;-69
2023/03/19 03:35:10;;;;;;;8.82;4.78;;;;;;;6.39;53.99;100493.47;5063976;28;20045;-69
2023/03/19 03:37:36;;;;;;;8.65;5.13;;;;;;;6.43;54.59;100491.47;5062656;28;20318;-65
2023/03/19 03:40:07;;;;;;;9.90;4.65;;;;;;;6.48;54.30;100491.94;5066066;28;20032;-69
2023/03/19 03:42:32;;;;;;;9.45;4.72;;;;;;;6.51;54.58;100496.13;5065825;28;20029;-64
2023/03/19 03:44:58;;;;;;;9.52;4.85;;;;;;;6.54;54.03;100496.72;5064282;28;20044;-65
2023/03/19 03:47:23;;;;;;;8.55;5.47;;;;;;;6.60;54.75;100500.69;5062146;28;20063;-64
2023/03/19 03:49:49;;;;;;;9.82;4.93;;;;;;;6.34;54.95;100500.88;5065978;28;20047;-69
2023/03/19 03:52:15;;;;;;;6.32;4.32;;;;;;;6.48;54.63;100497.22;5061871;28;20029;-65
2023/03/19 03:54:40;;;;;;;8.43;5.32;;;;;;;6.61;54.66;100502.38;5060082;28;20033;-64
2023/03/19 03:57:06;;;;;;;9.50;5.97;;;;;;;6.55;54.51;100493.16;5062572;28;20037;-64
2023/03/19 03:59:32;;;;;;;9.75;5.85;;;;;;;6.50;54.76;100499.72;5063176;28;20323;-69
2023/03/19 04:01:58;;;;;;;7.13;4.72;;;;;;;6.42;54.36;100495.03;5062158;28;20537;-69
2023/03/19 04:04:23;;;;;;;9.30;5.20;;;;;;;6.43;55.00;100501.97;5063196;28;20099;-69
2023/03/19 04:06:48;;;;;;;8.07;5.15;;;;;;;6.42;54.30;100500.31;5064980;28;20055;-65
2023/03/19 04:09:15;;;;;;;9.02;5.50;;;;;;;6.33;54.21;100491.31;5063882;28;20194;-64
2023/03/19 04:11:41;;;;;;;9.40;5.15;;;;;;;6.23;54.82;100500.00;5061879;28;20037;-70
2023/03/19 04:14:07;;;;;;;8.57;5.57;;;;;;;6.24;55.30;100504.31;5062924;28;20087;-69
2023/03/19 04:16:33;;;;;;;8.13;4.90;;;;;;;6.29;54.93;100505.66;5063272;28;20048;-65
2023/03/19 04:18:58;;;;;;;10.55;5.18;;;;;;;6.36;55.34;100503.41;5065366;28;20346;-65
2023/03/19 04:21:24;;;;;;;7.78;4.60;;;;;;;6.28;55.26;100508.41;5064585;28;20097;-64
2023/03/19 04:23:50;;;;;;;6.90;4.72;;;;;;;6.28;55.17;100506.63;5062654;28;20025;-65
2023/03/19 04:26:15;;;;;;;6.95;4.80;;;;;;;6.22;55.48;100508.84;5065119;28;20091;-65
2023/03/19 04:28:41;;;;;;;8.18;5.32;;;;;;;6.22;55.96;100514.94;5061575;28;20975;-65
2023/03/19 04:31:08;;;;;;;7.00;4.53;;;;;;;6.12;55.90;100519.22;5065680;28;20231;-65
2023/03/19 04:33:34;;;;;;;7.45;4.90;;;;;;;6.27;55.21;100509.34;5064585;28;20293;-69
2023/03/19 04:36:00;;;;;;;7.38;4.30;;;;;;;6.35;54.91;100514.88;5063455;28;20045;-65
2023/03/19 04:38:26;;;;;;;8.68;4.65;;;;;;;6.37;55.24;100519.06;5066643;28;20025;-65
2023/03/19 04:40:52;;;;;;;6.82;4.43;;;;;;;6.26;55.06;100513.78;5063430;28;20041;-64
2023/03/19 04:43:17;;;;;;;7.97;4.75;;;;;;;6.29;55.34;100521.44;5061249;28;20223;-69
2023/03/19 04:45:43;;;;;;;7.88;5.05;;;;;;;6.42;55.71;100523.97;5063056;28;20040;-69
2023/03/19 04:48:08;;;;;;;9.15;5.63;;;;;;;6.47;55.01;100516.56;5065257;28;20044;-69
2023/03/19 04:50:34;;;;;;;10.07;5.38;;;;;;;6.46;54.86;100527.22;5060658;28;20052;-69
2023/03/19 04:53:00;;;;;;;7.47;4.40;;;;;;;6.23;54.80;100532.41;5065406;28;20331;-64
2023/03/19 04:55:25;;;;;;;10.95;5.25;;;;;;;6.21;54.83;100529.03;5063952;28;20230;-69
2023/03/19 04:57:51;;;;;;;8.43;4.72;;;;;;;6.37;54.66;100524.34;5063017;28;20040;-66
2023/03/19 05:00:16;;;;;;;9.20;4.80;;;;;;;6.59;53.60;100533.22;5062539;28;20028;-69
2023/03/19 05:02:42;;;;;;;8.75;4.40;;;;;;;6.52;53.57;100524.13;5062793;28;20063;-64
2023/03/19 05:05:09;;;;;;;11.43;5.22;;;;;;;6.61;53.79;100533.94;5065692;28;20080;-64
2023/03/19 05:07:36;;;;;;;8.48;4.70;;;;;;;6.58;52.84;100535.00;5064179;28;20044;-65
2023/03/19 05:10:02;;;;;;;9.70;4.93;;;;;;;6.46;52.84;100540.38;5061583;28;20024;-65
2023/03/19 05:12:28;;;;;;;8.93;5.32;;;;;;;6.39;52.85;100532.09;5060926;28;20115;-65
2023/03/19 05:14:53;;;;;;;9.30;5.50;;;;;;;6.41;53.52;100540.72;5060368;28;20036;-69
2023/03/19 05:17:19;;;;;;;7.47;4.50;;;;;;;6.45;54.27;100534.28;5065062;28;20048;-69
2023/03/19 05:19:44;;;;;;;7.32;4.18;;;;;;;6.20;54.01;100542.31;5060269;28;20039;-69
2023/03/19 05:22:09;;;;;;;6.32;3.83;;;;;;;6.27;53.81;100539.13;5063255;28;20044;-69
2023/03/19 05:24:35;;;;;;;7.80;5.28;;;;;;;6.27;54.70;100539.13;5062661;28;20294;-69
2023/03/19 05:27:01;;;;;;;8.57;5.65;;;;;;;6.24;54.36;100539.34;5062989;28;20049;-64
2023/03/19 05:29:27;;;;;;;7.22;5.18;;;;;;;6.29;55.00;100541.66;5062452;28;20043;-65
2023/03/19 05:31:52;;;;;;;9.18;5.03;;;;;;;6.22;54.99;100546.50;5060273;28;20040;-69
2023/03/19 05:34:18;;;;;;;7.72;4.60;;;;;;;6.28;54.69;100548.69;5064760;28;20033;-69
2023/03/19 05:36:43;;;;;;;7.80;4.60;;;;;;;6.44;54.94;100552.81;5062946;28;20569;-69
2023/03/19 05:39:09;;;;;;;5.30;3.58;;;;;;;6.37;54.47;100555.91;5063215;28;20318;-64
2023/03/19 05:41:34;;;;;;;5.55;3.33;;;;;;;6.26;53.89;100562.91;5059959;28;20304;-65
2023/03/19 05:44:00;;;;;;;7.63;4.20;;;;;;;6.39;54.17;100568.94;5064238;28;20039;-64
2023/03/19 05:46:26;;;;;;;5.78;3.70;;;;;;;6.64;53.62;100568.75;5064200;28;20037;-65
2023/03/19 05:48:51;;;;;;;6.68;3.75;;;;;;;6.73;53.84;100573.31;5061117;28;20043;-65
2023/03/19 05:51:17;;;;;;;7.60;3.92;;;;;;;6.87;54.03;100577.53;5060612;28;20028;-66
2023/03/19 05:53:42;;;;;;;8.10;4.50;;;;;;;7.04;53.28;100581.47;5061243;28;20355;-69
2023/03/19 05:56:08;;;;;;;18.83;9.35;;;;;;;7.20;53.03;100567.97;5077296;28;20040;-65
2023/03/19 05:58:33;;;;;;;7.45;4.25;;;;;;;7.39;52.43;100562.94;5077558;28;20036;-69
2023/03/19 06:00:59;;;;;;;5.97;3.42;;;;;;;7.40;53.19;100556.72;5076232;28;20093;-65
2023/03/19 06:03:26;;;;;;;5.03;3.40;;;;;;;7.46;52.41;100563.28;5075798;28;20230;-69
2023/03/19 06:05:52;;;;;;;8.05;4.15;;;;;;;7.47;52.61;100567.59;5076266;28;20078;-69
2023/03/19 06:08:17;;;;;;;6.85;4.28;;;;;;;7.59;51.94;100558.72;5077089;28;20044;-69
2023/03/19 06:10:43;;;;;;;9.55;5.65;;;;;;;7.88;51.92;100566.91;5076835;28;20040;-69
2023/03/19 06:13:09;;;;;;;9.38;5.60;;;;;;;8.10;50.30;100563.34;5076990;28;20040;-69
2023/03/19 06:15:34;;;;;;;11.70;6.18;;;;;;;8.32;50.20;100563.25;5075912;28;20059;-70
2023/03/19 06:18:00;;;;;;;8.23;5.78;;;;;;;8.49;48.73;100562.75;5076440;28;20029;-66
2023/03/19 06:20:26;;;;;;;8.52;4.93;;;;;;;8.51;48.61;100567.88;5074955;28;20046;-69
2023/03/19 06:22:51;;;;;;;7.88;4.78;;;;;;;8.72;48.31;100570.53;5074908;28;20041;-65
2023/03/19 06:25:17;;;;;;;5.95;4.97;;;;;;;8.89;47.27;100567.28;5075465;28;20037;-69
2023/03/19 06:27:42;;;;;;;9.77;5.35;;;;;;;8.85;47.22;100563.22;5075535;28;20052;-69
2023/03/19 06:30:08;;;;;;;9.85;5.13;;;;;;;8.83;47.38;100562.53;5074952;28;20043;-70
2023/03/19 06:32:35;;;;;;;7.20;4.80;;;;;;;9.03;47.38;100555.53;5075415;28;20052;-69
2023/03/19 06:35:01;;;;;;;6.03;4.40;;;;;;;9.18;47.51;100556.84;5075684;28;20261;-66
2023/03/19 06:37:26;;;;;;;7.20;4.70;;;;;;;9.33;46.37;100570.53;5076355;28;20391;-63
2023/03/19 06:39:53;;;;;;;6.20;3.67;;;;;;;9.42;46.37;100567.94;5076853;28;20089;-63
2023/03/19 06:42:20;;;;;;;8.02;3.72;;;;;;;9.60;46.15;100568.97;5076754;28;20043;-63
2023/03/19 06:44:46;;;;;;;7.03;4.05;;;;;;;9.75;46.67;100561.47;5075955;28;20066;-68
2023/03/19 06:47:11;;;;;;;7.25;4.07;;;;;;;9.69;46.25;100556.75;5076566;28;20036;-67
2023/03/19 06:49:37;;;;;;;7.45;4.00;;;;;;;9.79;44.42;100554.94;5076398;28;20679;-63
2023/03/19 06:52:02;;;;;;;6.82;4.05;;;;;;;9.97;44.76;100563.03;5075532;28;20048;-68
2023/03/19 06:54:28;;;;;;;6.35;3.50;;;;;;;10.20;43.77;100561.00;5075865;28;20036;-64
2023/03/19 06:56:53;;;;;;;6.35;3.65;;;;;;;10.50;43.56;100554.72;5076453;28;20044;-64
2023/03/19 06:59:19;;;;;;;9.68;3.95;;;;;;;10.74;43.15;100559.56;5075960;28;20141;-69
2023/03/19 07:01:45;;;;;;;4.72;3.53;;;;;;;10.96;42.53;100553.06;5075403;28;20067;-65
2023/03/19 07:04:11;;;;;;;6.47;4.13;;;;;;;11.22;41.41;100554.09;5076723;28;20368;-65
2023/03/19 07:06:36;;;;;;;7.25;4.13;;;;;;;11.30;41.96;100554.19;5076833;28;20367;-66
2023/03/19 07:09:03;;;;;;;5.40;4.20;;;;;;;11.41;41.39;100553.97;5076053;28;20352;-65
2023/03/19 07:11:28;;;;;;;5.85;3.50;;;;;;;11.50;41.35;100547.00;5076488;28;20041;-66
2023/03/19 07:13:54;;;;;;;5.75;3.90;;;;;;;11.62;39.80;100542.31;5076299;28;20039;-70
2023/03/19 07:16:19;;;;;;;5.72;3.50;;;;;;;11.55;40.25;100551.84;5075392;28;20049;-69
2023/03/19 07:18:45;;;;;;;4.72;3.10;;;;;;;11.67;40.05;100551.50;5075300;28;20033;-65
2023/03/19 07:21:10;;;;;;;5.72;3.47;;;;;;;11.71;39.03;100544.06;5075733;28;20040;-70
2023/03/19 07:23:36;;;;;;;5.45;3.50;;;;;;;11.89;39.18;100544.94;5074866;28;20074;-70
2023/03/19 07:26:02;;;;;;;5.03;3.72;;;;;;;12.02;39.61;100540.09;5075830;28;20032;-69
2023/03/19 07:28:27;;;;;;;4.68;3.60;;;;;;;12.06;38.79;100546.78;5076479;28;21019;-66
2023/03/19 07:30:53;;;;;;;10.32;5.38;;;;;;;12.26;38.88;100536.81;5075750;28;20052;-64
2023/03/19 07:33:20;;;;;;;5.88;3.92;;;;;;;12.63;39.61;100526.00;5079941;28;20044;-68
2023/03/19 07:35:46;;;;;;;6.82;4.97;;;;;;;12.54;37.98;100526.09;5079476;28;20246;-64
2023/03/19 07:38:11;;;;;;;9.65;4.90;;;;;;;12.39;38.30;100531.09;5079329;28;20047;-68
2023/03/19 07:40:37;;;;;;;5.70;3.80;;;;;;;12.58;38.78;100530.13;5080042;28;20040;-63
2023/03/19 07:43:02;;;;;;;7.45;3.90;;;;;;;12.55;38.66;100523.28;5078616;28;20196;-64
2023/03/19 07:45:28;;;;;;;9.57;4.22;;;;;;;12.70;37.89;100523.56;5079667;28;20073;-64
2023/03/19 07:47:53;;;;;;;7.63;3.80;;;;;;;12.91;38.18;100521.34;5079547;28;20044;-68
2023/03/19 07:50:19;;;;;;;5.10;3.80;;;;;;;13.08;37.44;100517.78;5080190;28;20040;-68
2023/03/19 07:52:46;;;;;;;6.95;3.88;;;;;;;13.23;37.17;100527.84;5079159;28;21144;-68
2023/03/19 07:55:12;;;;;;;6.18;3.88;;;;;;;13.43;37.67;100530.06;5079714;28;20065;-64
2023/03/19 07:57:38;;;;;;;6.25;4.13;;;;;;;13.50;37.24;100532.94;5079087;28;20060;-64
2023/03/19 08:00:04;;;;;;;6.78;4.32;;;;;;;13.49;37.46;100528.59;5077992;28;20028;-68
2023/03/19 08:02:30;;;;;;;5.45;3.90;;;;;;;13.71;36.00;100528.03;5078654;28;20281;-64
2023/03/19 08:04:55;;;;;;;5.03;3.92;;;;;;;13.67;35.55;100525.84;5078584;28;20037;-63
2023/03/19 08:07:21;;;;;;;7.00;4.30;;;;;;;13.78;36.67;100528.19;5078784;28;20040;-68
2023/03/19 08:09:47;;;;;;;6.45;4.22;;;;;;;14.03;36.26;100529.06;5078630;28;20036;-68
2023/03/19 08:12:12;;;;;;;7.45;4.07;;;;;;;14.24;36.78;100521.41;5079065;28;20313;-68
2023/03/19 08:14:38;;;;;;;7.43;5.35;;;;;;;14.29;36.09;100521.75;5078828;28;20092;-68
2023/03/19 08:17:03;;;;;;;7.22;4.45;;;;;;;14.54;36.58;100516.44;5078630;28;20312;-64
2023/03/19 08:19:29;;;;;;;5.60;3.78;;;;;;;14.70;36.29;100511.09;5079447;28;20078;-64
2023/03/19 08:21:55;;;;;;;7.20;3.90;;;;;;;14.74;35.87;100515.09;5079700;28;20056;-63
2023/03/19 08:24:20;;;;;;;4.65;3.70;;;;;;;14.91;35.26;100507.88;5078426;28;20278;-64
2023/03/19 08:26:46;;;;;;;4.30;3.33;;;;;;;14.73;35.73;100507.25;5078450;28;20099;-64
2023/03/19 08:29:11;;;;;;;4.43;3.50;;;;;;;14.95;34.88;100504.69;5078698;28;20044;-67
2023/03/19 08:31:37;;;;;;;5.93;3.90;;;;;;;15.06;34.49;100494.66;5078075;28;20043;-64
2023/03/19 08:34:03;;;;;;;12.18;6.00;;;;;;;14.99;32.91;100489.19;5079186;28;20028;-68
2023/03/19 08:36:29;;;;;;;4.10;3.35;;;;;;;15.05;33.47;100493.81;5078240;28;20036;-68
2023/03/19 08:38:55;;;;;;;6.68;3.05;;;;;;;15.07;33.35;100486.47;5077778;28;20063;-66
2023/03/19 08:41:21;;;;;;;4.97;2.72;;;;;;;15.09;32.66;100480.97;5077552;28;20032;-68
2023/03/19 08:43:47;;;;;;;4.15;2.97;;;;;;;15.15;32.61;100483.78;5077634;28;20066;-68
2023/03/19 08:46:12;;;;;;;4.32;2.90;;;;;;;15.16;33.67;100480.09;5077098;28;20033;-68
2023/03/19 08:48:38;;;;;;;5.10;3.17;;;;;;;15.29;33.19;100479.53;5078588;28;20040;-63
2023/03/19 08:51:03;;;;;;;4.90;2.90;;;;;;;15.31;33.33;100473.03;5078208;28;20219;-65
2023/03/19 08:53:31;;;;;;;3.83;2.85;;;;;;;15.44;32.85;100476.97;5078088;28;20078;-63
2023/03/19 08:56:03;;;;;;;3.95;2.72;;;;;;;15.59;32.51;100480.56;5079033;28;20028;-64
2023/03/19 08:58:29;;;;;;;3.90;2.95;;;;;;;15.64;33.39;100475.56;5078233;28;20068;-64
2023/03/19 09:01:12;;;;;;;4.63;3.40;;;;;;;15.61;32.46;100475.91;5077305;28;20225;-68
2023/03/19 09:03:39;;;;;;;4.68;3.90;;;;;;;15.76;32.15;100462.63;5077992;28;20093;-63
2023/03/19 09:06:07;;;;;;;4.43;3.38;;;;;;;15.79;33.37;100457.75;5078186;28;20241;-68
2023/03/19 09:08:33;;;;;;;3.58;2.58;;;;;;;15.49;33.27;100462.09;5078522;28;20028;-64
2023/03/19 09:10:59;;;;;;;10.25;5.00;;;;;;;15.54;32.43;100456.22;5077969;28;20062;-64
2023/03/19 09:13:25;;;;;;;4.22;2.90;;;;;;;15.65;32.97;100453.19;5078043;28;20044;-68
2023/03/19 09:15:50;;;;;;;6.00;2.88;;;;;;;15.72;33.37;100453.31;5077334;28;20064;-68
2023/03/19 09:18:16;;;;;;;4.10;2.92;;;;;;;15.78;32.56;100453.44;5078477;28;20036;-63
2023/03/19 09:20:42;;;;;;;4.35;2.97;;;;;;;15.85;32.90;100443.69;5076808;28;20142;-64
2023/03/19 09:23:08;;;;;;;5.50;3.33;;;;;;;15.82;33.27;100448.56;5077255;28;20044;-68
2023/03/19 09:25:34;;;;;;;3.33;2.70;;;;;;;15.94;33.11;100445.28;5078132;28;20221;-68
2023/03/19 09:27:59;;;;;;;4.07;2.50;;;;;;;15.98;33.02;100439.59;5077077;28;20028;-65
2023/03/19 09:30:25;;;;;;;5.88;3.20;;;;;;;15.95;32.45;100435.44;5076950;28;20036;-64
2023/03/19 09:32:51;;;;;;;3.65;2.45;;;;;;;15.96;33.82;100435.25;5075984;28;20250;-64
2023/03/19 09:35:16;;;;;;;6.88;3.80;;;;;;;15.88;32.68;100426.50;5076531;28;20040;-64
2023/03/19 09:37:42;;;;;;;3.65;2.47;;;;;;;15.76;33.01;100431.41;5076612;28;20036;-68
2023/03/19 09:40:26;;;;;;;5.07;2.92;;;;;;;15.88;32.69;100421.97;5076553;28;20038;-68
2023/03/19 09:43:48;;;;;;;2.53;2.30;;;;;;;15.81;32.42;100426.38;5076779;28;20036;-69
2023/03/19 09:46:18;;;;;;;4.15;2.17;;;;;;;15.84;33.18;100414.50;5005175;28;20052;-68
2023/03/19 09:48:56;;;;;;;7.35;3.72;;;;;;;15.84;33.99;100414.50;5067110;28;20047;-68
2023/03/19 09:51:50;;;;;;;4.72;2.75;;;;;;;15.68;33.93;100410.13;5077181;28;20336;-68
2023/03/19 09:54:45;;;;;;;4.28;2.20;;;;;;;15.59;34.68;100406.66;5058082;28;20044;-68
2023/03/19 09:57:11;;;;;;;2.85;2.30;;;;;;;15.51;35.17;100398.69;5076460;28;20048;-68
2023/03/19 09:59:38;;;;;;;2.35;2.00;;;;;;;15.61;36.20;100407.34;5077199;28;20051;-64
2023/03/19 10:02:15;;;;;;;2.65;1.80;;;;;;;15.71;34.41;100406.25;5076722;28;20048;-65
2023/03/19 10:04:57;;;;;;;2.15;1.95;;;;;;;15.74;36.17;100400.56;5077155;28;20051;-64
2023/03/19 10:07:58;;;;;;;2.15;1.85;;;;;;;15.84;35.20;100387.78;5076989;28;20450;-64
2023/03/19 10:10:42;;;;;;;3.50;1.77;;;;;;;15.84;36.27;100396.63;5077422;28;20307;-68
2023/03/19 10:13:13;;;;;;;3.22;1.85;;;;;;;15.77;35.09;100394.88;5076806;28;20261;-65
2023/03/19 10:15:43;;;;;;;1.98;1.80;;;;;;;15.71;36.20;100387.59;5076344;28;20050;-68
2023/03/19 10:18:16;;;;;;;4.13;2.30;;;;;;;15.70;35.75;100377.91;5077539;28;20119;-68
2023/03/19 10:20:45;;;;;;;2.95;2.30;;;;;;;15.62;36.05;100378.81;5076664;28;20044;-64
2023/03/19 10:23:40;;;;;;;2.88;2.25;;;;;;;15.45;35.92;100367.38;5076298;28;20337;-64
2023/03/19 10:26:11;;;;;;;2.17;1.98;;;;;;;15.15;36.20;100365.56;5075806;28;20257;-67
2023/03/19 10:28:41;;;;;;;2.28;2.08;;;;;;;15.07;36.63;100360.28;5076809;28;20031;-68
2023/03/19 10:31:11;;;;;;;4.00;2.30;;;;;;;15.11;37.87;100350.94;5072868;28;20024;-64
2023/03/19 10:34:07;;;;;;;2.40;2.20;;;;;;;15.22;36.59;100348.69;5072105;28;20063;-64
2023/03/19 10:36:35;;;;;;;3.05;2.17;;;;;;;15.34;36.16;100333.91;5070071;28;20052;-67
2023/03/19 10:39:03;;;;;;;7.78;4.13;;;;;;;15.32;36.69;100333.28;5071454;28;20103;-64
2023/03/19 10:41:47;;;;;;;2.58;2.25;;;;;;;15.27;36.42;100327.63;5070201;28;20636;-68
2023/03/19 10:44:28;;;;;;;3.30;2.30;;;;;;;15.17;36.64;100327.03;5070170;28;20044;-68
2023/03/19 10:46:57;;;;;;;2.85;2.17;;;;;;;15.33;37.46;100312.75;5069135;28;20028;-63
2023/03/19 10:49:22;;;;;;;2.20;1.92;;;;;;;15.30;37.82;100313.13;5070258;28;20719;-63
2023/03/19 10:51:48;;;;;;;2.08;1.88;;;;;;;15.29;38.31;100306.13;5069838;28;20041;-68
2023/03/19 10:54:26;;;;;;;2.03;1.75;;;;;;;15.22;38.14;100295.34;5069093;28;20108;-66
2023/03/19 10:56:55;;;;;;;4.03;2.25;;;;;;;15.34;37.75;100295.75;5070561;28;20424;-67
2023/03/19 10:59:38;;;;;;;2.75;2.03;;;;;;;15.22;37.35;100295.34;5069973;28;20139;-68
2023/03/19 11:02:22;;;;;;;2.40;1.90;;;;;;;15.20;38.60;100286.69;5070841;28;20132;-67
2023/03/19 11:05:04;;;;;;;3.55;2.80;;;;;;;15.29;37.85;100282.09;5070387;28;20550;-67
2023/03/19 11:07:32;;;;;;;2.53;2.33;;;;;;;15.28;38.74;100283.13;5073427;28;20040;-64
2023/03/19 11:09:57;;;;;;;3.10;2.20;;;;;;;15.41;38.20;100278.00;5073082;28;20045;-67
2023/03/19 11:12:30;;;;;;;4.00;2.40;;;;;;;15.46;37.46;100274.78;5073966;28;20342;-64
2023/03/19 11:14:57;;;;;;;3.92;2.45;;;;;;;15.50;37.66;100274.25;5074641;28;20107;-68
2023/03/19 11:17:47;;;;;;;2.65;2.00;;;;;;;15.51;37.55;100265.22;5073226;28;20044;-67
2023/03/19 11:20:26;;;;;;;2.55;2.10;;;;;;;15.53;37.40;100255.19;5072928;28;20044;-63
2023/03/19 11:22:53;;;;;;;3.20;2.15;;;;;;;15.58;37.77;100252.84;5072646;28;20238;-64
2023/03/19 11:25:25;;;;;;;3.88;2.00;;;;;;;15.63;37.85;100255.00;5074522;28;20044;-63
2023/03/19 11:28:10;;;;;;;4.37;2.43;;;;;;;15.68;38.83;100257.94;5074528;28;20401;-64
2023/03/19 11:31:06;;;;;;;3.03;2.22;;;;;;;15.68;41.05;100238.44;5072411;28;20033;-68